sensor_id;sensor_type;location;lat;lon;timestamp;P1;durP1;ratioP1;P2;durP2;ratioP2
355;SDS011;62514;48.112;11.566;2024-03-06T00:00:17;347.60;;;69.37;;
355;SDS011;62514;48.112;11.566;2024-03-06T00:02:43;356.97;;;72.87;;
355;SDS011;62514;48.112;11.566;2024-03-06T00:05:09;349.60;;;70.57;;
355;SDS011;62514;48.112;11.566;2024-03-06T00:07:35;351.37;;;70.10;;
355;SDS011;62514;48.112;11.566;2024-03-06T00:10:01;344.00;;;69.00;;
355;SDS011;62514;48.112;11.566;2024-03-06T00:12:30;348.33;;;70.80;;
355;SDS011;62514;48.112;11.566;2024-03-06T00:14:56;351.87;;;70.80;;
355;SDS011;62514;48.112;11.566;2024-03-06T00:17:22;355.47;;;72.63;;
355;SDS011;62514;48.112;11.566;2024-03-06T00:19:48;357.10;;;74.10;;
355;SDS011;62514;48.112;11.566;2024-03-06T00:22:14;353.63;;;70.70;;
355;SDS011;62514;48.112;11.566;2024-03-06T00:24:39;344.13;;;68.20;;
355;SDS011;62514;48.112;11.566;2024-03-06T00:27:05;353.87;;;71.07;;
355;SDS011;62514;48.112;11.566;2024-03-06T00:29:31;346.17;;;68.30;;
355;SDS011;62514;48.112;11.566;2024-03-06T00:31:57;344.43;;;70.47;;
355;SDS011;62514;48.112;11.566;2024-03-06T00:34:24;354.17;;;77.00;;
355;SDS011;62514;48.112;11.566;2024-03-06T00:36:50;353.17;;;72.43;;
355;SDS011;62514;48.112;11.566;2024-03-06T00:39:15;356.57;;;72.67;;
355;SDS011;62514;48.112;11.566;2024-03-06T00:41:41;350.60;;;70.20;;
355;SDS011;62514;48.112;11.566;2024-03-06T00:44:07;350.07;;;68.97;;
355;SDS011;62514;48.112;11.566;2024-03-06T00:46:33;357.00;;;70.63;;
355;SDS011;62514;48.112;11.566;2024-03-06T00:49:00;353.97;;;71.17;;
355;SDS011;62514;48.112;11.566;2024-03-06T00:51:25;355.37;;;74.20;;
355;SDS011;62514;48.112;11.566;2024-03-06T00:53:51;357.70;;;75.20;;
355;SDS011;62514;48.112;11.566;2024-03-06T00:56:17;349.70;;;71.10;;
355;SDS011;62514;48.112;11.566;2024-03-06T00:58:45;352.47;;;70.07;;
355;SDS011;62514;48.112;11.566;2024-03-06T01:01:11;349.77;;;69.47;;
355;SDS011;62514;48.112;11.566;2024-03-06T01:03:37;355.00;;;72.10;;
355;SDS011;62514;48.112;11.566;2024-03-06T01:06:04;354.03;;;73.27;;
355;SDS011;62514;48.112;11.566;2024-03-06T01:08:30;352.77;;;71.67;;
355;SDS011;62514;48.112;11.566;2024-03-06T01:10:57;356.63;;;71.90;;
355;SDS011;62514;48.112;11.566;2024-03-06T01:13:23;340.83;;;68.87;;
355;SDS011;62514;48.112;11.566;2024-03-06T01:15:49;357.60;;;74.30;;
355;SDS011;62514;48.112;11.566;2024-03-06T01:18:16;346.17;;;69.17;;
355;SDS011;62514;48.112;11.566;2024-03-06T01:20:42;363.80;;;73.47;;
355;SDS011;62514;48.112;11.566;2024-03-06T01:23:07;352.40;;;72.33;;
355;SDS011;62514;48.112;11.566;2024-03-06T01:25:34;342.07;;;69.77;;
355;SDS011;62514;48.112;11.566;2024-03-06T01:27:59;348.27;;;69.73;;
355;SDS011;62514;48.112;11.566;2024-03-06T01:30:26;353.00;;;73.20;;
355;SDS011;62514;48.112;11.566;2024-03-06T01:32:52;344.73;;;69.37;;
355;SDS011;62514;48.112;11.566;2024-03-06T01:35:18;354.40;;;70.67;;
355;SDS011;62514;48.112;11.566;2024-03-06T01:37:44;356.80;;;70.30;;
355;SDS011;62514;48.112;11.566;2024-03-06T01:40:10;349.57;;;70.27;;
355;SDS011;62514;48.112;11.566;2024-03-06T01:42:36;340.70;;;68.13;;
355;SDS011;62514;48.112;11.566;2024-03-06T01:45:02;347.00;;;69.00;;
355;SDS011;62514;48.112;11.566;2024-03-06T01:47:29;352.63;;;72.00;;
355;SDS011;62514;48.112;11.566;2024-03-06T01:49:55;355.37;;;73.27;;
355;SDS011;62514;48.112;11.566;2024-03-06T01:52:21;351.67;;;71.00;;
355;SDS011;62514;48.112;11.566;2024-03-06T01:54:48;342.13;;;69.33;;
355;SDS011;62514;48.112;11.566;2024-03-06T01:57:15;350.20;;;69.80;;
355;SDS011;62514;48.112;11.566;2024-03-06T01:59:43;355.97;;;69.50;;
355;SDS011;62514;48.112;11.566;2024-03-06T02:02:09;351.77;;;71.20;;
355;SDS011;62514;48.112;11.566;2024-03-06T02:04:37;351.80;;;71.40;;
355;SDS011;62514;48.112;11.566;2024-03-06T02:07:09;354.97;;;72.60;;
355;SDS011;62514;48.112;11.566;2024-03-06T02:09:36;349.83;;;71.47;;
355;SDS011;62514;48.112;11.566;2024-03-06T02:12:02;355.03;;;73.57;;
355;SDS011;62514;48.112;11.566;2024-03-06T02:14:29;367.63;;;81.03;;
355;SDS011;62514;48.112;11.566;2024-03-06T02:16:55;355.57;;;73.53;;
355;SDS011;62514;48.112;11.566;2024-03-06T02:19:21;357.07;;;73.70;;
355;SDS011;62514;48.112;11.566;2024-03-06T02:21:47;356.77;;;72.27;;
355;SDS011;62514;48.112;11.566;2024-03-06T02:24:13;356.97;;;73.70;;
355;SDS011;62514;48.112;11.566;2024-03-06T02:26:39;358.07;;;72.87;;
355;SDS011;62514;48.112;11.566;2024-03-06T02:29:06;357.33;;;72.40;;
355;SDS011;62514;48.112;11.566;2024-03-06T02:31:32;352.13;;;73.50;;
355;SDS011;62514;48.112;11.566;2024-03-06T02:33:58;352.07;;;71.60;;
355;SDS011;62514;48.112;11.566;2024-03-06T02:36:24;354.87;;;71.97;;
355;SDS011;62514;48.112;11.566;2024-03-06T02:38:51;355.37;;;71.43;;
355;SDS011;62514;48.112;11.566;2024-03-06T02:41:17;354.87;;;71.37;;
355;SDS011;62514;48.112;11.566;2024-03-06T02:43:43;344.67;;;68.97;;
355;SDS011;62514;48.112;11.566;2024-03-06T02:46:09;357.37;;;73.07;;
355;SDS011;62514;48.112;11.566;2024-03-06T02:48:35;357.77;;;73.77;;
355;SDS011;62514;48.112;11.566;2024-03-06T02:51:01;357.40;;;72.70;;
355;SDS011;62514;48.112;11.566;2024-03-06T02:53:27;356.43;;;70.63;;
355;SDS011;62514;48.112;11.566;2024-03-06T02:55:53;355.03;;;69.73;;
355;SDS011;62514;48.112;11.566;2024-03-06T02:58:19;351.77;;;69.40;;
355;SDS011;62514;48.112;11.566;2024-03-06T03:00:45;352.17;;;68.10;;
355;SDS011;62514;48.112;11.566;2024-03-06T03:03:11;352.90;;;70.70;;
355;SDS011;62514;48.112;11.566;2024-03-06T03:05:37;349.77;;;70.10;;
355;SDS011;62514;48.112;11.566;2024-03-06T03:08:04;342.20;;;69.10;;
355;SDS011;62514;48.112;11.566;2024-03-06T03:10:31;343.10;;;66.80;;
355;SDS011;62514;48.112;11.566;2024-03-06T03:12:57;332.33;;;65.47;;
355;SDS011;62514;48.112;11.566;2024-03-06T03:15:23;337.67;;;67.50;;
355;SDS011;62514;48.112;11.566;2024-03-06T03:17:49;331.07;;;65.93;;
355;SDS011;62514;48.112;11.566;2024-03-06T03:20:15;334.30;;;65.50;;
355;SDS011;62514;48.112;11.566;2024-03-06T03:22:42;329.00;;;63.30;;
355;SDS011;62514;48.112;11.566;2024-03-06T03:25:09;320.67;;;61.70;;
355;SDS011;62514;48.112;11.566;2024-03-06T03:27:37;324.53;;;61.93;;
355;SDS011;62514;48.112;11.566;2024-03-06T03:30:04;330.80;;;66.00;;
355;SDS011;62514;48.112;11.566;2024-03-06T03:32:34;315.87;;;60.70;;
355;SDS011;62514;48.112;11.566;2024-03-06T03:35:00;328.50;;;64.70;;
355;SDS011;62514;48.112;11.566;2024-03-06T03:37:26;324.40;;;64.00;;
355;SDS011;62514;48.112;11.566;2024-03-06T03:39:53;319.37;;;61.43;;
355;SDS011;62514;48.112;11.566;2024-03-06T03:42:19;330.90;;;66.40;;
355;SDS011;62514;48.112;11.566;2024-03-06T03:44:45;322.43;;;62.93;;
355;SDS011;62514;48.112;11.566;2024-03-06T03:47:11;319.47;;;61.17;;
355;SDS011;62514;48.112;11.566;2024-03-06T03:49:37;319.27;;;62.10;;
355;SDS011;62514;48.112;11.566;2024-03-06T03:52:04;327.10;;;64.33;;
355;SDS011;62514;48.112;11.566;2024-03-06T03:54:30;345.83;;;73.50;;
355;SDS011;62514;48.112;11.566;2024-03-06T03:56:55;322.23;;;62.20;;
355;SDS011;62514;48.112;11.566;2024-03-06T03:59:23;327.97;;;65.37;;
355;SDS011;62514;48.112;11.566;2024-03-06T04:01:49;327.63;;;66.30;;
355;SDS011;62514;48.112;11.566;2024-03-06T04:04:15;317.27;;;65.17;;
355;SDS011;62514;48.112;11.566;2024-03-06T04:06:41;315.93;;;61.37;;
355;SDS011;62514;48.112;11.566;2024-03-06T04:09:07;318.47;;;63.40;;
355;SDS011;62514;48.112;11.566;2024-03-06T04:11:38;322.07;;;62.90;;
355;SDS011;62514;48.112;11.566;2024-03-06T04:14:10;319.93;;;63.20;;
355;SDS011;62514;48.112;11.566;2024-03-06T04:16:37;314.17;;;60.63;;
355;SDS011;62514;48.112;11.566;2024-03-06T04:19:03;308.43;;;61.70;;
355;SDS011;62514;48.112;11.566;2024-03-06T04:21:30;310.07;;;60.77;;
355;SDS011;62514;48.112;11.566;2024-03-06T04:23:56;307.93;;;59.57;;
355;SDS011;62514;48.112;11.566;2024-03-06T04:26:22;320.17;;;62.00;;
355;SDS011;62514;48.112;11.566;2024-03-06T04:28:47;319.93;;;64.23;;
355;SDS011;62514;48.112;11.566;2024-03-06T04:31:13;324.60;;;66.10;;
355;SDS011;62514;48.112;11.566;2024-03-06T04:33:40;323.20;;;63.33;;
355;SDS011;62514;48.112;11.566;2024-03-06T04:36:08;325.87;;;64.27;;
355;SDS011;62514;48.112;11.566;2024-03-06T04:38:34;322.97;;;63.43;;
355;SDS011;62514;48.112;11.566;2024-03-06T04:41:00;321.77;;;62.30;;
355;SDS011;62514;48.112;11.566;2024-03-06T04:43:27;321.60;;;61.70;;
355;SDS011;62514;48.112;11.566;2024-03-06T04:45:53;322.83;;;63.27;;
355;SDS011;62514;48.112;11.566;2024-03-06T04:48:19;319.17;;;61.47;;
355;SDS011;62514;48.112;11.566;2024-03-06T04:50:44;320.03;;;61.13;;
355;SDS011;62514;48.112;11.566;2024-03-06T04:53:10;327.67;;;64.27;;
355;SDS011;62514;48.112;11.566;2024-03-06T04:55:37;327.70;;;68.33;;
355;SDS011;62514;48.112;11.566;2024-03-06T04:58:03;325.87;;;63.60;;
355;SDS011;62514;48.112;11.566;2024-03-06T05:00:30;321.70;;;62.07;;
355;SDS011;62514;48.112;11.566;2024-03-06T05:02:56;324.90;;;63.40;;
355;SDS011;62514;48.112;11.566;2024-03-06T05:05:22;321.30;;;65.43;;
355;SDS011;62514;48.112;11.566;2024-03-06T05:07:48;319.87;;;62.00;;
355;SDS011;62514;48.112;11.566;2024-03-06T05:10:14;325.43;;;65.00;;
355;SDS011;62514;48.112;11.566;2024-03-06T05:12:41;312.20;;;62.27;;
355;SDS011;62514;48.112;11.566;2024-03-06T05:15:07;324.70;;;66.13;;
355;SDS011;62514;48.112;11.566;2024-03-06T05:17:34;318.40;;;62.77;;
355;SDS011;62514;48.112;11.566;2024-03-06T05:20:00;317.03;;;62.57;;
355;SDS011;62514;48.112;11.566;2024-03-06T05:22:26;316.73;;;61.90;;
355;SDS011;62514;48.112;11.566;2024-03-06T05:24:52;317.10;;;62.57;;
355;SDS011;62514;48.112;11.566;2024-03-06T05:27:18;304.80;;;59.90;;
355;SDS011;62514;48.112;11.566;2024-03-06T05:29:44;314.17;;;61.67;;
355;SDS011;62514;48.112;11.566;2024-03-06T05:32:10;317.17;;;62.47;;
355;SDS011;62514;48.112;11.566;2024-03-06T05:34:36;312.97;;;62.07;;
355;SDS011;62514;48.112;11.566;2024-03-06T05:37:02;311.03;;;61.17;;
355;SDS011;62514;48.112;11.566;2024-03-06T05:39:30;305.93;;;60.90;;
355;SDS011;62514;48.112;11.566;2024-03-06T05:42:00;295.60;;;58.93;;
355;SDS011;62514;48.112;11.566;2024-03-06T05:44:32;315.47;;;69.60;;
355;SDS011;62514;48.112;11.566;2024-03-06T05:46:59;289.40;;;57.87;;
355;SDS011;62514;48.112;11.566;2024-03-06T05:49:28;291.70;;;58.60;;
355;SDS011;62514;48.112;11.566;2024-03-06T05:51:55;293.23;;;60.50;;
355;SDS011;62514;48.112;11.566;2024-03-06T05:54:21;299.80;;;59.27;;
355;SDS011;62514;48.112;11.566;2024-03-06T05:56:48;291.60;;;58.57;;
355;SDS011;62514;48.112;11.566;2024-03-06T05:59:17;306.63;;;62.73;;
355;SDS011;62514;48.112;11.566;2024-03-06T06:01:44;302.93;;;61.80;;
355;SDS011;62514;48.112;11.566;2024-03-06T06:04:10;301.03;;;59.80;;
355;SDS011;62514;48.112;11.566;2024-03-06T06:06:36;304.77;;;61.00;;
355;SDS011;62514;48.112;11.566;2024-03-06T06:09:02;307.10;;;62.97;;
355;SDS011;62514;48.112;11.566;2024-03-06T06:11:32;291.80;;;58.77;;
355;SDS011;62514;48.112;11.566;2024-03-06T06:13:58;299.90;;;59.97;;
355;SDS011;62514;48.112;11.566;2024-03-06T06:16:25;303.07;;;61.60;;
355;SDS011;62514;48.112;11.566;2024-03-06T06:18:51;309.93;;;61.70;;
355;SDS011;62514;48.112;11.566;2024-03-06T06:21:17;300.60;;;61.13;;
355;SDS011;62514;48.112;11.566;2024-03-06T06:23:44;309.07;;;61.40;;
355;SDS011;62514;48.112;11.566;2024-03-06T06:26:10;318.87;;;64.13;;
355;SDS011;62514;48.112;11.566;2024-03-06T06:28:36;312.93;;;61.90;;
355;SDS011;62514;48.112;11.566;2024-03-06T06:31:03;332.33;;;67.20;;
355;SDS011;62514;48.112;11.566;2024-03-06T06:33:29;330.00;;;63.97;;
355;SDS011;62514;48.112;11.566;2024-03-06T06:35:55;328.87;;;65.47;;
355;SDS011;62514;48.112;11.566;2024-03-06T06:38:21;336.80;;;67.93;;
355;SDS011;62514;48.112;11.566;2024-03-06T06:40:47;261.23;;;53.53;;
355;SDS011;62514;48.112;11.566;2024-03-06T06:43:13;317.20;;;64.33;;
355;SDS011;62514;48.112;11.566;2024-03-06T06:45:40;338.10;;;70.40;;
355;SDS011;62514;48.112;11.566;2024-03-06T06:48:06;253.33;;;51.77;;
355;SDS011;62514;48.112;11.566;2024-03-06T06:50:34;329.00;;;66.30;;
355;SDS011;62514;48.112;11.566;2024-03-06T06:53:01;331.10;;;67.77;;
355;SDS011;62514;48.112;11.566;2024-03-06T06:55:27;329.30;;;67.10;;
355;SDS011;62514;48.112;11.566;2024-03-06T06:57:53;321.73;;;64.10;;
355;SDS011;62514;48.112;11.566;2024-03-06T07:00:19;318.27;;;62.77;;
355;SDS011;62514;48.112;11.566;2024-03-06T07:02:47;330.57;;;65.30;;
355;SDS011;62514;48.112;11.566;2024-03-06T07:05:13;328.10;;;63.13;;
355;SDS011;62514;48.112;11.566;2024-03-06T07:07:39;330.73;;;65.57;;
355;SDS011;62514;48.112;11.566;2024-03-06T07:10:06;335.00;;;68.17;;
355;SDS011;62514;48.112;11.566;2024-03-06T07:12:33;333.27;;;67.03;;
355;SDS011;62514;48.112;11.566;2024-03-06T07:14:59;331.97;;;66.20;;
355;SDS011;62514;48.112;11.566;2024-03-06T07:17:25;329.03;;;65.30;;
355;SDS011;62514;48.112;11.566;2024-03-06T07:19:51;330.47;;;64.90;;
355;SDS011;62514;48.112;11.566;2024-03-06T07:22:18;321.30;;;64.47;;
355;SDS011;62514;48.112;11.566;2024-03-06T07:24:44;323.13;;;64.40;;
355;SDS011;62514;48.112;11.566;2024-03-06T07:27:11;327.30;;;64.07;;
355;SDS011;62514;48.112;11.566;2024-03-06T07:29:37;328.57;;;64.43;;
355;SDS011;62514;48.112;11.566;2024-03-06T07:32:03;329.37;;;65.40;;
355;SDS011;62514;48.112;11.566;2024-03-06T07:34:32;259.87;;;51.03;;
355;SDS011;62514;48.112;11.566;2024-03-06T07:36:59;328.27;;;65.27;;
355;SDS011;62514;48.112;11.566;2024-03-06T07:39:25;331.07;;;65.77;;
355;SDS011;62514;48.112;11.566;2024-03-06T07:41:51;325.97;;;65.00;;
355;SDS011;62514;48.112;11.566;2024-03-06T07:44:18;341.73;;;71.20;;
355;SDS011;62514;48.112;11.566;2024-03-06T07:46:45;321.37;;;64.20;;
355;SDS011;62514;48.112;11.566;2024-03-06T07:49:11;327.00;;;64.90;;
355;SDS011;62514;48.112;11.566;2024-03-06T07:51:37;314.00;;;61.63;;
355;SDS011;62514;48.112;11.566;2024-03-06T07:54:03;325.80;;;64.77;;
355;SDS011;62514;48.112;11.566;2024-03-06T07:56:29;302.90;;;60.83;;
355;SDS011;62514;48.112;11.566;2024-03-06T07:58:55;323.27;;;65.60;;
355;SDS011;62514;48.112;11.566;2024-03-06T08:01:22;325.57;;;64.43;;
355;SDS011;62514;48.112;11.566;2024-03-06T08:03:48;321.90;;;64.37;;
355;SDS011;62514;48.112;11.566;2024-03-06T08:06:14;324.53;;;63.13;;
355;SDS011;62514;48.112;11.566;2024-03-06T08:08:41;324.43;;;64.20;;
355;SDS011;62514;48.112;11.566;2024-03-06T08:11:18;322.03;;;64.43;;
355;SDS011;62514;48.112;11.566;2024-03-06T08:13:48;322.57;;;63.87;;
355;SDS011;62514;48.112;11.566;2024-03-06T08:16:15;319.13;;;62.50;;
355;SDS011;62514;48.112;11.566;2024-03-06T08:18:42;325.50;;;64.37;;
355;SDS011;62514;48.112;11.566;2024-03-06T08:21:08;307.13;;;60.23;;
355;SDS011;62514;48.112;11.566;2024-03-06T08:23:34;333.27;;;67.57;;
355;SDS011;62514;48.112;11.566;2024-03-06T08:26:00;309.53;;;63.27;;
355;SDS011;62514;48.112;11.566;2024-03-06T08:28:26;297.63;;;61.00;;
355;SDS011;62514;48.112;11.566;2024-03-06T08:30:52;328.40;;;66.50;;
355;SDS011;62514;48.112;11.566;2024-03-06T08:33:18;332.87;;;65.80;;
355;SDS011;62514;48.112;11.566;2024-03-06T08:35:46;335.87;;;69.20;;
355;SDS011;62514;48.112;11.566;2024-03-06T08:38:12;326.70;;;65.20;;
355;SDS011;62514;48.112;11.566;2024-03-06T08:40:38;328.20;;;63.80;;
355;SDS011;62514;48.112;11.566;2024-03-06T08:43:04;331.33;;;65.77;;
355;SDS011;62514;48.112;11.566;2024-03-06T08:45:30;336.87;;;66.90;;
355;SDS011;62514;48.112;11.566;2024-03-06T08:47:56;329.17;;;64.73;;
355;SDS011;62514;48.112;11.566;2024-03-06T08:50:22;333.53;;;66.63;;
355;SDS011;62514;48.112;11.566;2024-03-06T08:52:48;317.53;;;63.77;;
355;SDS011;62514;48.112;11.566;2024-03-06T08:55:14;332.03;;;65.57;;
355;SDS011;62514;48.112;11.566;2024-03-06T08:57:40;341.10;;;67.83;;
355;SDS011;62514;48.112;11.566;2024-03-06T09:00:07;317.87;;;63.40;;
355;SDS011;62514;48.112;11.566;2024-03-06T09:02:36;301.03;;;59.90;;
355;SDS011;62514;48.112;11.566;2024-03-06T09:05:06;319.27;;;62.20;;
355;SDS011;62514;48.112;11.566;2024-03-06T09:07:38;330.87;;;66.80;;
355;SDS011;62514;48.112;11.566;2024-03-06T09:10:06;339.27;;;68.23;;
355;SDS011;62514;48.112;11.566;2024-03-06T09:12:36;303.37;;;60.67;;
355;SDS011;62514;48.112;11.566;2024-03-06T09:15:02;308.27;;;62.73;;
355;SDS011;62514;48.112;11.566;2024-03-06T09:17:29;294.93;;;60.13;;
355;SDS011;62514;48.112;11.566;2024-03-06T09:19:55;311.63;;;66.00;;
355;SDS011;62514;48.112;11.566;2024-03-06T09:22:21;303.50;;;60.70;;
355;SDS011;62514;48.112;11.566;2024-03-06T09:24:48;303.17;;;63.70;;
355;SDS011;62514;48.112;11.566;2024-03-06T09:27:14;318.50;;;68.00;;
355;SDS011;62514;48.112;11.566;2024-03-06T09:29:41;345.00;;;71.80;;
355;SDS011;62514;48.112;11.566;2024-03-06T09:32:08;333.17;;;69.33;;
355;SDS011;62514;48.112;11.566;2024-03-06T09:34:35;343.37;;;71.40;;
355;SDS011;62514;48.112;11.566;2024-03-06T09:37:02;304.73;;;64.10;;
355;SDS011;62514;48.112;11.566;2024-03-06T09:39:29;309.47;;;63.77;;
355;SDS011;62514;48.112;11.566;2024-03-06T09:41:55;388.10;;;92.37;;
355;SDS011;62514;48.112;11.566;2024-03-06T09:44:22;315.87;;;65.03;;
355;SDS011;62514;48.112;11.566;2024-03-06T09:46:49;311.30;;;65.97;;
355;SDS011;62514;48.112;11.566;2024-03-06T09:49:16;313.20;;;65.50;;
355;SDS011;62514;48.112;11.566;2024-03-06T09:51:43;308.33;;;62.70;;
355;SDS011;62514;48.112;11.566;2024-03-06T09:54:11;320.47;;;66.17;;
355;SDS011;62514;48.112;11.566;2024-03-06T09:56:43;310.47;;;63.37;;
355;SDS011;62514;48.112;11.566;2024-03-06T09:59:10;323.27;;;66.37;;
355;SDS011;62514;48.112;11.566;2024-03-06T10:01:50;327.63;;;67.13;;
355;SDS011;62514;48.112;11.566;2024-03-06T10:04:21;334.60;;;68.43;;
355;SDS011;62514;48.112;11.566;2024-03-06T10:06:56;332.20;;;67.83;;
355;SDS011;62514;48.112;11.566;2024-03-06T10:09:23;328.73;;;66.47;;
355;SDS011;62514;48.112;11.566;2024-03-06T10:11:50;339.93;;;71.40;;
355;SDS011;62514;48.112;11.566;2024-03-06T10:14:19;341.77;;;73.07;;
355;SDS011;62514;48.112;11.566;2024-03-06T10:16:55;338.80;;;70.17;;
355;SDS011;62514;48.112;11.566;2024-03-06T10:19:22;333.77;;;68.47;;
355;SDS011;62514;48.112;11.566;2024-03-06T10:21:49;337.10;;;70.43;;
355;SDS011;62514;48.112;11.566;2024-03-06T10:24:20;332.60;;;69.70;;
355;SDS011;62514;48.112;11.566;2024-03-06T10:26:48;336.57;;;68.90;;
355;SDS011;62514;48.112;11.566;2024-03-06T10:29:20;343.70;;;70.83;;
355;SDS011;62514;48.112;11.566;2024-03-06T10:31:53;348.33;;;73.53;;
355;SDS011;62514;48.112;11.566;2024-03-06T10:34:21;348.30;;;71.53;;
355;SDS011;62514;48.112;11.566;2024-03-06T10:36:54;326.93;;;66.87;;
355;SDS011;62514;48.112;11.566;2024-03-06T10:39:25;340.97;;;71.07;;
355;SDS011;62514;48.112;11.566;2024-03-06T10:41:54;351.50;;;75.93;;
355;SDS011;62514;48.112;11.566;2024-03-06T10:44:25;349.33;;;75.23;;
355;SDS011;62514;48.112;11.566;2024-03-06T10:46:56;322.47;;;65.57;;
355;SDS011;62514;48.112;11.566;2024-03-06T10:49:25;318.60;;;64.57;;
355;SDS011;62514;48.112;11.566;2024-03-06T10:52:02;326.57;;;65.03;;
355;SDS011;62514;48.112;11.566;2024-03-06T10:54:32;347.20;;;74.50;;
355;SDS011;62514;48.112;11.566;2024-03-06T10:57:00;326.97;;;65.77;;
355;SDS011;62514;48.112;11.566;2024-03-06T10:59:27;339.83;;;69.50;;
355;SDS011;62514;48.112;11.566;2024-03-06T11:01:58;329.00;;;65.47;;
355;SDS011;62514;48.112;11.566;2024-03-06T11:04:28;350.50;;;76.80;;
355;SDS011;62514;48.112;11.566;2024-03-06T11:06:59;317.87;;;63.70;;
355;SDS011;62514;48.112;11.566;2024-03-06T11:09:35;331.63;;;66.27;;
355;SDS011;62514;48.112;11.566;2024-03-06T11:12:05;314.73;;;63.07;;
355;SDS011;62514;48.112;11.566;2024-03-06T11:14:32;353.27;;;77.33;;
355;SDS011;62514;48.112;11.566;2024-03-06T11:17:05;324.70;;;67.43;;
355;SDS011;62514;48.112;11.566;2024-03-06T11:28:19;341.70;;;70.77;;
355;SDS011;62514;48.112;11.566;2024-03-06T11:33:38;331.17;;;68.10;;
355;SDS011;62514;48.112;11.566;2024-03-06T11:44:12;336.40;;;67.63;;
355;SDS011;62514;48.112;11.566;2024-03-06T11:49:26;341.40;;;69.87;;
355;SDS011;62514;48.112;11.566;2024-03-06T11:52:03;336.40;;;67.07;;
355;SDS011;62514;48.112;11.566;2024-03-06T11:54:31;344.33;;;76.73;;
355;SDS011;62514;48.112;11.566;2024-03-06T11:56:59;328.63;;;69.30;;
355;SDS011;62514;48.112;11.566;2024-03-06T11:59:33;332.80;;;69.30;;
355;SDS011;62514;48.112;11.566;2024-03-06T12:02:01;348.90;;;72.77;;
355;SDS011;62514;48.112;11.566;2024-03-06T12:04:32;278.00;;;61.57;;
355;SDS011;62514;48.112;11.566;2024-03-06T12:07:03;326.27;;;68.07;;
355;SDS011;62514;48.112;11.566;2024-03-06T12:09:35;342.20;;;72.03;;
355;SDS011;62514;48.112;11.566;2024-03-06T12:12:02;324.30;;;68.00;;
355;SDS011;62514;48.112;11.566;2024-03-06T12:14:29;367.70;;;84.60;;
355;SDS011;62514;48.112;11.566;2024-03-06T12:16:55;311.63;;;67.80;;
355;SDS011;62514;48.112;11.566;2024-03-06T12:19:22;321.80;;;69.57;;
355;SDS011;62514;48.112;11.566;2024-03-06T12:21:50;317.63;;;66.40;;
355;SDS011;62514;48.112;11.566;2024-03-06T12:24:16;323.77;;;69.03;;
355;SDS011;62514;48.112;11.566;2024-03-06T12:26:46;338.57;;;70.23;;
355;SDS011;62514;48.112;11.566;2024-03-06T12:29:23;345.73;;;73.67;;
355;SDS011;62514;48.112;11.566;2024-03-06T12:31:48;328.60;;;69.97;;
355;SDS011;62514;48.112;11.566;2024-03-06T12:34:14;345.90;;;72.27;;
355;SDS011;62514;48.112;11.566;2024-03-06T12:36:43;330.97;;;68.73;;
355;SDS011;62514;48.112;11.566;2024-03-06T12:39:10;323.17;;;68.77;;
355;SDS011;62514;48.112;11.566;2024-03-06T12:41:39;346.10;;;71.73;;
355;SDS011;62514;48.112;11.566;2024-03-06T12:44:05;350.10;;;74.53;;
355;SDS011;62514;48.112;11.566;2024-03-06T12:46:34;337.63;;;70.17;;
355;SDS011;62514;48.112;11.566;2024-03-06T12:49:00;336.10;;;68.37;;
355;SDS011;62514;48.112;11.566;2024-03-06T12:51:27;348.10;;;72.63;;
355;SDS011;62514;48.112;11.566;2024-03-06T12:53:53;346.87;;;73.20;;
355;SDS011;62514;48.112;11.566;2024-03-06T12:56:19;346.13;;;71.30;;
355;SDS011;62514;48.112;11.566;2024-03-06T12:58:45;348.07;;;72.53;;
355;SDS011;62514;48.112;11.566;2024-03-06T13:01:11;350.80;;;75.10;;
355;SDS011;62514;48.112;11.566;2024-03-06T13:03:37;337.93;;;69.77;;
355;SDS011;62514;48.112;11.566;2024-03-06T13:06:03;345.10;;;72.03;;
355;SDS011;62514;48.112;11.566;2024-03-06T13:08:30;319.03;;;66.30;;
355;SDS011;62514;48.112;11.566;2024-03-06T13:10:56;343.43;;;69.17;;
355;SDS011;62514;48.112;11.566;2024-03-06T13:13:23;343.17;;;70.07;;
355;SDS011;62514;48.112;11.566;2024-03-06T13:15:54;350.23;;;71.13;;
355;SDS011;62514;48.112;11.566;2024-03-06T13:18:20;338.57;;;69.00;;
355;SDS011;62514;48.112;11.566;2024-03-06T13:20:46;353.87;;;73.07;;
355;SDS011;62514;48.112;11.566;2024-03-06T13:23:13;348.33;;;71.00;;
355;SDS011;62514;48.112;11.566;2024-03-06T13:25:38;361.93;;;76.30;;
355;SDS011;62514;48.112;11.566;2024-03-06T13:28:05;354.80;;;71.80;;
355;SDS011;62514;48.112;11.566;2024-03-06T13:30:31;352.40;;;72.67;;
355;SDS011;62514;48.112;11.566;2024-03-06T13:32:58;354.97;;;72.47;;
355;SDS011;62514;48.112;11.566;2024-03-06T13:35:24;357.00;;;73.53;;
355;SDS011;62514;48.112;11.566;2024-03-06T13:37:50;346.80;;;71.80;;
355;SDS011;62514;48.112;11.566;2024-03-06T13:40:16;338.67;;;72.70;;
355;SDS011;62514;48.112;11.566;2024-03-06T13:42:42;312.73;;;66.50;;
355;SDS011;62514;48.112;11.566;2024-03-06T13:45:09;329.77;;;68.37;;
355;SDS011;62514;48.112;11.566;2024-03-06T13:47:40;339.67;;;70.60;;
355;SDS011;62514;48.112;11.566;2024-03-06T13:50:10;344.07;;;73.03;;
355;SDS011;62514;48.112;11.566;2024-03-06T13:52:37;330.40;;;65.57;;
355;SDS011;62514;48.112;11.566;2024-03-06T13:55:03;348.97;;;71.53;;
355;SDS011;62514;48.112;11.566;2024-03-06T13:57:31;349.40;;;71.67;;
355;SDS011;62514;48.112;11.566;2024-03-06T14:00:01;345.33;;;71.37;;
355;SDS011;62514;48.112;11.566;2024-03-06T14:02:28;340.80;;;71.03;;
355;SDS011;62514;48.112;11.566;2024-03-06T14:04:54;354.33;;;74.57;;
355;SDS011;62514;48.112;11.566;2024-03-06T14:07:20;366.03;;;83.47;;
355;SDS011;62514;48.112;11.566;2024-03-06T14:09:46;334.27;;;68.73;;
355;SDS011;62514;48.112;11.566;2024-03-06T14:12:12;343.47;;;69.73;;
355;SDS011;62514;48.112;11.566;2024-03-06T14:14:38;337.97;;;66.80;;
355;SDS011;62514;48.112;11.566;2024-03-06T14:17:04;344.83;;;70.80;;
355;SDS011;62514;48.112;11.566;2024-03-06T14:19:30;344.87;;;70.60;;
355;SDS011;62514;48.112;11.566;2024-03-06T14:21:56;344.67;;;70.30;;
355;SDS011;62514;48.112;11.566;2024-03-06T14:24:22;354.00;;;74.60;;
355;SDS011;62514;48.112;11.566;2024-03-06T14:26:48;347.67;;;73.77;;
355;SDS011;62514;48.112;11.566;2024-03-06T14:29:14;343.43;;;70.80;;
355;SDS011;62514;48.112;11.566;2024-03-06T14:31:40;343.80;;;71.60;;
355;SDS011;62514;48.112;11.566;2024-03-06T14:34:06;342.67;;;69.10;;
355;SDS011;62514;48.112;11.566;2024-03-06T14:36:32;341.47;;;69.70;;
355;SDS011;62514;48.112;11.566;2024-03-06T14:39:00;312.67;;;62.17;;
355;SDS011;62514;48.112;11.566;2024-03-06T14:41:26;311.97;;;62.77;;